Eulalia, Pennsylvania
Current Conditions -  °F | °C
As of 2:56 PM on Wednesday 28 Jan 2015 (Local Time) from KELZ Reporting Station
Clear Clear  
Wind Chill: 16°   Ceiling: Unl
Heat Index: 24°   Visibility: 10mi
Dew Point:   Wind: 7mph
Humidity: 35%   Direction: 340°NNW
Pressure: 30.17"   Gusts: NA
Location:  41.7605°N, 77.9728°W
Report Text: KELZ 281956Z AUTO 34006KT 10SM CLR M04/M18 A3017 RMK AO2 SLP255 T10441178
Loading
Personal Weather Stations






























Interactive Weather Map New forecast layout! Learn more

10-Day Weather Forecast

Advertisements
Track Severe Weather on mobile